sensor_id;sensor_type;location;lat;lon;timestamp;pressure;altitude;pressure_sealevel;temperature;humidity
43683;BME280;29285;52.128;21.060;2022-09-29T00:00:52;98778.91;;;9.45;73.63
43683;BME280;29285;52.128;21.060;2022-09-29T00:05:56;98786.91;;;9.26;73.71
43683;BME280;29285;52.128;21.060;2022-09-29T00:10:57;98791.39;;;9.09;73.86
43683;BME280;29285;52.128;21.060;2022-09-29T00:16:00;98786.12;;;8.99;74.05
43683;BME280;29285;52.128;21.060;2022-09-29T00:21:11;98790.05;;;8.97;74.25
43683;BME280;29285;52.128;21.060;2022-09-29T00:26:19;98782.45;;;8.93;74.46
43683;BME280;29285;52.128;21.060;2022-09-29T00:31:25;98790.31;;;8.90;74.67
43683;BME280;29285;52.128;21.060;2022-09-29T00:36:27;98783.05;;;8.87;74.87
43683;BME280;29285;52.128;21.060;2022-09-29T00:41:32;98785.73;;;8.84;75.05
43683;BME280;29285;52.128;21.060;2022-09-29T00:46:42;98790.02;;;8.85;75.23
43683;BME280;29285;52.128;21.060;2022-09-29T00:57:03;98781.93;;;8.95;75.55
43683;BME280;29285;52.128;21.060;2022-09-29T01:02:06;98769.73;;;8.97;75.67
43683;BME280;29285;52.128;21.060;2022-09-29T01:07:09;98780.27;;;9.06;75.79
43683;BME280;29285;52.128;21.060;2022-09-29T01:12:10;98790.70;;;9.04;75.86
43683;BME280;29285;52.128;21.060;2022-09-29T01:17:12;98793.91;;;8.99;75.91
43683;BME280;29285;52.128;21.060;2022-09-29T01:28:26;98809.52;;;8.97;76.08
43683;BME280;29285;52.128;21.060;2022-09-29T01:33:38;98819.20;;;9.06;76.21
43683;BME280;29285;52.128;21.060;2022-09-29T01:44:03;98818.46;;;9.14;76.41
43683;BME280;29285;52.128;21.060;2022-09-29T01:49:06;98836.71;;;9.12;76.46
43683;BME280;29285;52.128;21.060;2022-09-29T01:54:16;98827.29;;;8.96;76.44
43683;BME280;29285;52.128;21.060;2022-09-29T01:59:29;98827.84;;;8.93;76.46
43683;BME280;29285;52.128;21.060;2022-09-29T02:04:44;98827.75;;;8.82;76.52
43683;BME280;29285;52.128;21.060;2022-09-29T02:09:51;98830.52;;;8.76;76.57
43683;BME280;29285;52.128;21.060;2022-09-29T02:14:54;98832.42;;;8.71;76.68
43683;BME280;29285;52.128;21.060;2022-09-29T02:19:57;98834.31;;;8.66;76.77
43683;BME280;29285;52.128;21.060;2022-09-29T02:25:00;98836.52;;;8.65;76.89
43683;BME280;29285;52.128;21.060;2022-09-29T02:30:02;98859.03;;;8.64;77.01
43683;BME280;29285;52.128;21.060;2022-09-29T02:35:05;98853.97;;;8.59;77.12
43683;BME280;29285;52.128;21.060;2022-09-29T02:40:21;98851.46;;;8.56;77.21
43683;BME280;29285;52.128;21.060;2022-09-29T02:51:47;98845.41;;;8.57;77.47
43683;BME280;29285;52.128;21.060;2022-09-29T02:56:26;98855.14;;;8.64;77.55
43683;BME280;29285;52.128;21.060;2022-09-29T03:01:33;98867.75;;;8.62;77.59
43683;BME280;29285;52.128;21.060;2022-09-29T03:06:36;98857.00;;;8.59;77.63
43683;BME280;29285;52.128;21.060;2022-09-29T03:11:38;98870.78;;;8.61;77.68
43683;BME280;29285;52.128;21.060;2022-09-29T03:16:39;98868.23;;;8.59;77.72
43683;BME280;29285;52.128;21.060;2022-09-29T03:21:40;98879.11;;;8.57;77.75
43683;BME280;29285;52.128;21.060;2022-09-29T03:26:41;98906.62;;;8.46;77.76
43683;BME280;29285;52.128;21.060;2022-09-29T03:31:42;98901.36;;;8.50;77.81
43683;BME280;29285;52.128;21.060;2022-09-29T03:36:44;98899.98;;;8.51;77.93
43683;BME280;29285;52.128;21.060;2022-09-29T03:41:45;98906.38;;;8.56;78.01
43683;BME280;29285;52.128;21.060;2022-09-29T03:46:47;98907.33;;;8.53;78.05
43683;BME280;29285;52.128;21.060;2022-09-29T03:51:48;98920.29;;;8.53;78.05
43683;BME280;29285;52.128;21.060;2022-09-29T03:56:50;98925.98;;;8.50;78.06
43683;BME280;29285;52.128;21.060;2022-09-29T04:01:51;98932.98;;;8.46;78.05
43683;BME280;29285;52.128;21.060;2022-09-29T04:06:52;98935.14;;;8.46;78.05
43683;BME280;29285;52.128;21.060;2022-09-29T04:11:53;98931.22;;;8.48;78.09
43683;BME280;29285;52.128;21.060;2022-09-29T04:16:55;98920.64;;;8.56;78.12
43683;BME280;29285;52.128;21.060;2022-09-29T04:21:56;98924.38;;;8.60;78.22
43683;BME280;29285;52.128;21.060;2022-09-29T04:26:58;98932.55;;;8.46;78.15
43683;BME280;29285;52.128;21.060;2022-09-29T04:31:59;98936.39;;;8.33;78.07
43683;BME280;29285;52.128;21.060;2022-09-29T04:37:01;98935.89;;;8.20;78.00
43683;BME280;29285;52.128;21.060;2022-09-29T04:42:02;98931.40;;;8.12;78.00
43683;BME280;29285;52.128;21.060;2022-09-29T04:47:04;98934.14;;;8.05;78.03
43683;BME280;29285;52.128;21.060;2022-09-29T04:52:05;98934.78;;;7.99;78.04
43683;BME280;29285;52.128;21.060;2022-09-29T04:57:07;98950.76;;;7.98;78.10
43683;BME280;29285;52.128;21.060;2022-09-29T05:02:10;98933.92;;;7.98;78.16
43683;BME280;29285;52.128;21.060;2022-09-29T05:07:12;98936.11;;;7.97;78.22
43683;BME280;29285;52.128;21.060;2022-09-29T05:12:14;98945.50;;;8.01;78.30
43683;BME280;29285;52.128;21.060;2022-09-29T05:17:15;98952.91;;;7.99;78.38
43683;BME280;29285;52.128;21.060;2022-09-29T05:22:16;98956.48;;;7.94;78.44
43683;BME280;29285;52.128;21.060;2022-09-29T05:27:20;98963.21;;;8.00;78.52
43683;BME280;29285;52.128;21.060;2022-09-29T05:32:21;98966.63;;;8.02;78.59
43683;BME280;29285;52.128;21.060;2022-09-29T05:37:23;98971.63;;;8.08;78.67
43683;BME280;29285;52.128;21.060;2022-09-29T05:42:24;98981.42;;;8.14;78.72
43683;BME280;29285;52.128;21.060;2022-09-29T05:47:27;98996.94;;;8.30;78.85
43683;BME280;29285;52.128;21.060;2022-09-29T05:52:28;98997.88;;;8.28;78.86
43683;BME280;29285;52.128;21.060;2022-09-29T05:57:29;98994.13;;;8.38;78.89
43683;BME280;29285;52.128;21.060;2022-09-29T06:02:31;99000.31;;;8.49;78.96
43683;BME280;29285;52.128;21.060;2022-09-29T06:07:33;99005.74;;;8.56;78.98
43683;BME280;29285;52.128;21.060;2022-09-29T06:12:35;99002.67;;;8.58;78.98
43683;BME280;29285;52.128;21.060;2022-09-29T06:17:37;99011.96;;;8.66;78.99
43683;BME280;29285;52.128;21.060;2022-09-29T06:22:38;99008.63;;;8.77;79.03
43683;BME280;29285;52.128;21.060;2022-09-29T06:27:40;99014.77;;;8.88;79.07
43683;BME280;29285;52.128;21.060;2022-09-29T06:32:41;99016.93;;;8.89;79.05
43683;BME280;29285;52.128;21.060;2022-09-29T06:37:43;99027.20;;;9.07;79.09
43683;BME280;29285;52.128;21.060;2022-09-29T06:42:46;99026.98;;;9.28;79.17
43683;BME280;29285;52.128;21.060;2022-09-29T06:47:48;99034.56;;;9.34;79.21
43683;BME280;29285;52.128;21.060;2022-09-29T06:52:49;99044.05;;;9.35;79.13
43683;BME280;29285;52.128;21.060;2022-09-29T06:57:51;99046.40;;;9.43;79.10
43683;BME280;29285;52.128;21.060;2022-09-29T07:02:52;99048.05;;;9.46;79.06
43683;BME280;29285;52.128;21.060;2022-09-29T07:07:54;99051.16;;;9.44;78.93
43683;BME280;29285;52.128;21.060;2022-09-29T07:12:56;99057.28;;;9.54;78.86
43683;BME280;29285;52.128;21.060;2022-09-29T07:17:58;99063.34;;;9.55;78.81
43683;BME280;29285;52.128;21.060;2022-09-29T07:23:00;99071.92;;;9.57;78.71
43683;BME280;29285;52.128;21.060;2022-09-29T07:28:02;99075.27;;;9.47;78.54
43683;BME280;29285;52.128;21.060;2022-09-29T07:33:03;99078.13;;;9.53;78.44
43683;BME280;29285;52.128;21.060;2022-09-29T07:38:04;99076.52;;;9.62;78.42
43683;BME280;29285;52.128;21.060;2022-09-29T07:43:06;99086.92;;;9.76;78.42
43683;BME280;29285;52.128;21.060;2022-09-29T07:48:08;99097.57;;;9.82;78.38
43683;BME280;29285;52.128;21.060;2022-09-29T07:53:10;99107.24;;;9.90;78.36
43683;BME280;29285;52.128;21.060;2022-09-29T07:58:12;99113.66;;;9.93;78.30
43683;BME280;29285;52.128;21.060;2022-09-29T08:03:13;99116.30;;;9.91;78.19
43683;BME280;29285;52.128;21.060;2022-09-29T08:08:14;99106.41;;;9.89;78.08
43683;BME280;29285;52.128;21.060;2022-09-29T08:13:16;99107.05;;;9.83;77.92
43683;BME280;29285;52.128;21.060;2022-09-29T08:18:17;99105.81;;;9.95;77.91
43683;BME280;29285;52.128;21.060;2022-09-29T08:23:19;99119.98;;;10.11;77.94
43683;BME280;29285;52.128;21.060;2022-09-29T08:28:21;99118.97;;;10.29;77.95
43683;BME280;29285;52.128;21.060;2022-09-29T08:33:22;99134.70;;;10.38;77.91
43683;BME280;29285;52.128;21.060;2022-09-29T08:38:25;99133.55;;;10.33;77.76
43683;BME280;29285;52.128;21.060;2022-09-29T08:43:30;99128.25;;;10.36;77.61
43683;BME280;29285;52.128;21.060;2022-09-29T08:48:37;99129.59;;;10.35;77.47
43683;BME280;29285;52.128;21.060;2022-09-29T08:53:42;99141.50;;;10.42;77.38
43683;BME280;29285;52.128;21.060;2022-09-29T08:58:45;99158.56;;;10.51;77.38
43683;BME280;29285;52.128;21.060;2022-09-29T09:20:34;99159.92;;;10.75;77.01
43683;BME280;29285;52.128;21.060;2022-09-29T09:25:43;99163.35;;;10.75;76.84
43683;BME280;29285;52.128;21.060;2022-09-29T09:30:57;99174.34;;;10.83;76.75
43683;BME280;29285;52.128;21.060;2022-09-29T09:36:32;99172.87;;;10.88;76.68
43683;BME280;29285;52.128;21.060;2022-09-29T09:41:38;99186.84;;;10.85;76.50
43683;BME280;29285;52.128;21.060;2022-09-29T09:46:52;99187.86;;;10.93;76.37
43683;BME280;29285;52.128;21.060;2022-09-29T09:52:11;99187.54;;;11.03;76.29
43683;BME280;29285;52.128;21.060;2022-09-29T10:03:05;99198.41;;;10.90;75.84
43683;BME280;29285;52.128;21.060;2022-09-29T10:08:14;99203.84;;;11.08;75.74
43683;BME280;29285;52.128;21.060;2022-09-29T10:13:17;99206.41;;;11.33;75.81
43683;BME280;29285;52.128;21.060;2022-09-29T10:23:45;99217.83;;;11.75;75.76
43683;BME280;29285;52.128;21.060;2022-09-29T10:28:54;99216.20;;;12.07;75.72
43683;BME280;29285;52.128;21.060;2022-09-29T10:39:39;99231.30;;;11.99;75.21
43683;BME280;29285;52.128;21.060;2022-09-29T10:44:49;99239.56;;;11.98;74.99
43683;BME280;29285;52.128;21.060;2022-09-29T10:55:20;99234.41;;;12.09;74.59
43683;BME280;29285;52.128;21.060;2022-09-29T11:00:33;99234.62;;;12.02;74.48
43683;BME280;29285;52.128;21.060;2022-09-29T11:05:36;99245.97;;;12.01;74.32
43683;BME280;29285;52.128;21.060;2022-09-29T11:10:39;99253.44;;;12.11;74.24
43683;BME280;29285;52.128;21.060;2022-09-29T11:15:40;99247.77;;;12.34;74.23
43683;BME280;29285;52.128;21.060;2022-09-29T11:20:43;99250.34;;;12.66;74.29
43683;BME280;29285;52.128;21.060;2022-09-29T11:25:52;99250.39;;;12.96;74.29
43683;BME280;29285;52.128;21.060;2022-09-29T11:36:50;99250.12;;;12.92;73.65
43683;BME280;29285;52.128;21.060;2022-09-29T12:10:14;99259.20;;;13.04;72.05
43683;BME280;29285;52.128;21.060;2022-09-29T12:15:24;99264.80;;;13.05;71.89
43683;BME280;29285;52.128;21.060;2022-09-29T12:20:27;99263.67;;;13.31;71.86
43683;BME280;29285;52.128;21.060;2022-09-29T12:25:33;99271.88;;;13.92;72.03
43683;BME280;29285;52.128;21.060;2022-09-29T12:30:57;99267.80;;;14.23;72.05
43683;BME280;29285;52.128;21.060;2022-09-29T12:36:07;99279.86;;;14.45;71.68
43683;BME280;29285;52.128;21.060;2022-09-29T12:41:39;99284.23;;;14.07;70.64
43683;BME280;29285;52.128;21.060;2022-09-29T12:46:53;99291.63;;;14.62;70.58
43683;BME280;29285;52.128;21.060;2022-09-29T12:51:55;99289.08;;;14.34;70.03
43683;BME280;29285;52.128;21.060;2022-09-29T12:57:07;99289.70;;;14.48;69.74
43683;BME280;29285;52.128;21.060;2022-09-29T13:19:07;99286.86;;;15.48;69.05
43683;BME280;29285;52.128;21.060;2022-09-29T13:29:49;99285.56;;;16.06;68.78
43683;BME280;29285;52.128;21.060;2022-09-29T13:34:56;99290.02;;;16.36;68.55
43683;BME280;29285;52.128;21.060;2022-09-29T13:40:07;99290.18;;;16.87;68.48
43683;BME280;29285;52.128;21.060;2022-09-29T13:50:43;99297.86;;;17.13;67.61
43683;BME280;29285;52.128;21.060;2022-09-29T13:55:55;99304.41;;;16.68;66.92
43683;BME280;29285;52.128;21.060;2022-09-29T14:01:00;99312.17;;;17.00;66.67
43683;BME280;29285;52.128;21.060;2022-09-29T14:06:19;99326.78;;;17.06;66.64
43683;BME280;29285;52.128;21.060;2022-09-29T14:11:34;99324.34;;;17.17;66.29
43683;BME280;29285;52.128;21.060;2022-09-29T14:21:56;99327.89;;;18.11;66.42
43683;BME280;29285;52.128;21.060;2022-09-29T14:32:54;99323.92;;;22.04;65.19
43683;BME280;29285;52.128;21.060;2022-09-29T14:38:02;99325.66;;;22.70;63.25
43683;BME280;29285;52.128;21.060;2022-09-29T14:43:34;99323.53;;;23.59;61.42
43683;BME280;29285;52.128;21.060;2022-09-29T14:54:31;99329.99;;;21.72;57.86
43683;BME280;29285;52.128;21.060;2022-09-29T15:04:50;99350.45;;;18.22;57.04
43683;BME280;29285;52.128;21.060;2022-09-29T15:09:56;99356.95;;;17.29;57.43
43683;BME280;29285;52.128;21.060;2022-09-29T15:14:59;99362.81;;;16.64;57.88
43683;BME280;29285;52.128;21.060;2022-09-29T15:25:36;99367.90;;;15.78;58.66
43683;BME280;29285;52.128;21.060;2022-09-29T15:30:35;99371.22;;;15.39;58.86
43683;BME280;29285;52.128;21.060;2022-09-29T15:35:40;99378.89;;;15.08;59.06
43683;BME280;29285;52.128;21.060;2022-09-29T15:40:54;99385.28;;;14.85;59.30
43683;BME280;29285;52.128;21.060;2022-09-29T15:46:01;99391.88;;;14.64;59.50
43683;BME280;29285;52.128;21.060;2022-09-29T15:51:09;99402.33;;;14.47;59.67
43683;BME280;29285;52.128;21.060;2022-09-29T15:56:11;99409.78;;;14.26;59.78
43683;BME280;29285;52.128;21.060;2022-09-29T16:01:14;99408.41;;;14.09;59.91
43683;BME280;29285;52.128;21.060;2022-09-29T16:06:29;99418.71;;;13.93;60.01
43683;BME280;29285;52.128;21.060;2022-09-29T16:11:38;99425.28;;;13.72;60.04
43683;BME280;29285;52.128;21.060;2022-09-29T16:16:45;99428.56;;;13.56;60.11
43683;BME280;29285;52.128;21.060;2022-09-29T16:21:51;99432.73;;;13.40;60.23
43683;BME280;29285;52.128;21.060;2022-09-29T16:26:55;99440.82;;;13.23;60.38
43683;BME280;29285;52.128;21.060;2022-09-29T16:31:59;99443.45;;;13.01;60.51
43683;BME280;29285;52.128;21.060;2022-09-29T16:37:19;99449.80;;;12.83;60.66
43683;BME280;29285;52.128;21.060;2022-09-29T16:42:24;99452.91;;;12.70;60.91
43683;BME280;29285;52.128;21.060;2022-09-29T16:47:28;99466.08;;;12.55;61.06
43683;BME280;29285;52.128;21.060;2022-09-29T16:52:39;99467.57;;;12.39;61.18
43683;BME280;29285;52.128;21.060;2022-09-29T16:58:01;99464.86;;;12.30;61.40
43683;BME280;29285;52.128;21.060;2022-09-29T17:03:05;99466.59;;;12.17;61.60
43683;BME280;29285;52.128;21.060;2022-09-29T17:08:11;99476.73;;;12.01;61.77
43683;BME280;29285;52.128;21.060;2022-09-29T17:13:22;99484.48;;;11.91;61.95
43683;BME280;29285;52.128;21.060;2022-09-29T17:18:24;99492.31;;;11.77;62.09
43683;BME280;29285;52.128;21.060;2022-09-29T17:23:26;99500.53;;;11.65;62.22
43683;BME280;29285;52.128;21.060;2022-09-29T17:28:27;99504.78;;;11.56;62.37
43683;BME280;29285;52.128;21.060;2022-09-29T17:33:29;99495.10;;;11.46;62.52
43683;BME280;29285;52.128;21.060;2022-09-29T17:38:31;99495.27;;;11.41;62.71
43683;BME280;29285;52.128;21.060;2022-09-29T17:43:32;99493.87;;;11.31;62.81
43683;BME280;29285;52.128;21.060;2022-09-29T17:48:33;99489.74;;;11.23;62.95
43683;BME280;29285;52.128;21.060;2022-09-29T17:53:35;99500.36;;;11.17;63.07
43683;BME280;29285;52.128;21.060;2022-09-29T17:58:36;99507.91;;;11.11;63.22
43683;BME280;29285;52.128;21.060;2022-09-29T18:03:37;99522.07;;;11.03;63.29
43683;BME280;29285;52.128;21.060;2022-09-29T18:08:38;99525.27;;;10.97;63.41
43683;BME280;29285;52.128;21.060;2022-09-29T18:13:40;99522.34;;;10.93;63.52
43683;BME280;29285;52.128;21.060;2022-09-29T18:18:41;99511.63;;;10.89;63.66
43683;BME280;29285;52.128;21.060;2022-09-29T18:23:43;99518.28;;;10.84;63.79
43683;BME280;29285;52.128;21.060;2022-09-29T18:28:45;99531.67;;;10.72;63.85
43683;BME280;29285;52.128;21.060;2022-09-29T18:33:48;99543.39;;;10.72;63.99
43683;BME280;29285;52.128;21.060;2022-09-29T18:38:49;99542.20;;;10.67;64.12
43683;BME280;29285;52.128;21.060;2022-09-29T18:43:51;99547.80;;;10.68;64.26
43683;BME280;29285;52.128;21.060;2022-09-29T18:48:53;99556.12;;;10.66;64.37
43683;BME280;29285;52.128;21.060;2022-09-29T18:53:54;99560.52;;;10.64;64.48
43683;BME280;29285;52.128;21.060;2022-09-29T18:58:55;99561.00;;;10.62;64.60
43683;BME280;29285;52.128;21.060;2022-09-29T19:03:57;99570.55;;;10.62;64.71
43683;BME280;29285;52.128;21.060;2022-09-29T19:08:58;99574.52;;;10.60;64.82
43683;BME280;29285;52.128;21.060;2022-09-29T19:14:00;99578.85;;;10.59;64.93
43683;BME280;29285;52.128;21.060;2022-09-29T19:19:03;99585.75;;;10.61;65.03
43683;BME280;29285;52.128;21.060;2022-09-29T19:24:06;99589.76;;;10.57;65.14
43683;BME280;29285;52.128;21.060;2022-09-29T19:29:08;99588.61;;;10.51;65.17
43683;BME280;29285;52.128;21.060;2022-09-29T19:34:09;99588.75;;;10.46;65.23
43683;BME280;29285;52.128;21.060;2022-09-29T19:39:12;99588.96;;;10.37;65.27
43683;BME280;29285;52.128;21.060;2022-09-29T19:44:14;99600.11;;;10.26;65.26
43683;BME280;29285;52.128;21.060;2022-09-29T19:49:16;99595.34;;;10.25;65.37
43683;BME280;29285;52.128;21.060;2022-09-29T19:54:21;99598.45;;;10.23;65.52
43683;BME280;29285;52.128;21.060;2022-09-29T19:59:31;99606.71;;;10.21;65.61
43683;BME280;29285;52.128;21.060;2022-09-29T20:04:33;99604.68;;;10.16;65.69
43683;BME280;29285;52.128;21.060;2022-09-29T20:09:35;99607.78;;;10.14;65.77
43683;BME280;29285;52.128;21.060;2022-09-29T20:14:36;99614.88;;;10.07;65.81
43683;BME280;29285;52.128;21.060;2022-09-29T20:19:39;99621.94;;;10.02;65.86
43683;BME280;29285;52.128;21.060;2022-09-29T20:24:40;99612.11;;;9.97;65.92
43683;BME280;29285;52.128;21.060;2022-09-29T20:29:41;99607.88;;;9.92;65.94
43683;BME280;29285;52.128;21.060;2022-09-29T20:34:42;99607.09;;;9.89;66.00
43683;BME280;29285;52.128;21.060;2022-09-29T20:39:43;99630.62;;;9.84;66.06
43683;BME280;29285;52.128;21.060;2022-09-29T20:44:45;99632.16;;;9.73;66.08
43683;BME280;29285;52.128;21.060;2022-09-29T20:49:46;99629.72;;;9.67;66.08
43683;BME280;29285;52.128;21.060;2022-09-29T20:54:48;99624.55;;;9.65;66.17
43683;BME280;29285;52.128;21.060;2022-09-29T20:59:49;99630.30;;;9.60;66.24
43683;BME280;29285;52.128;21.060;2022-09-29T21:04:50;99630.36;;;9.57;66.29
43683;BME280;29285;52.128;21.060;2022-09-29T21:09:51;99638.09;;;9.60;66.40
43683;BME280;29285;52.128;21.060;2022-09-29T21:14:55;99633.42;;;9.57;66.47
43683;BME280;29285;52.128;21.060;2022-09-29T21:19:56;99642.69;;;9.49;66.47
43683;BME280;29285;52.128;21.060;2022-09-29T21:24:57;99640.23;;;9.43;66.49
43683;BME280;29285;52.128;21.060;2022-09-29T21:29:58;99650.66;;;9.41;66.51
43683;BME280;29285;52.128;21.060;2022-09-29T21:35:00;99647.68;;;9.38;66.57
43683;BME280;29285;52.128;21.060;2022-09-29T21:40:03;99661.64;;;9.33;66.61
43683;BME280;29285;52.128;21.060;2022-09-29T21:45:06;99661.70;;;9.30;66.63
43683;BME280;29285;52.128;21.060;2022-09-29T21:50:09;99667.95;;;9.21;66.64
43683;BME280;29285;52.128;21.060;2022-09-29T21:55:11;99680.92;;;9.21;66.70
43683;BME280;29285;52.128;21.060;2022-09-29T22:00:12;99683.12;;;9.20;66.79
43683;BME280;29285;52.128;21.060;2022-09-29T22:05:13;99689.25;;;9.16;66.82
43683;BME280;29285;52.128;21.060;2022-09-29T22:10:15;99702.72;;;9.13;66.89
43683;BME280;29285;52.128;21.060;2022-09-29T22:15:16;99703.26;;;9.08;66.91
43683;BME280;29285;52.128;21.060;2022-09-29T22:20:18;99703.81;;;9.02;66.91
43683;BME280;29285;52.128;21.060;2022-09-29T22:25:19;99709.92;;;8.99;66.93
43683;BME280;29285;52.128;21.060;2022-09-29T22:30:20;99723.35;;;8.97;67.02
43683;BME280;29285;52.128;21.060;2022-09-29T22:35:23;99720.86;;;8.92;67.02
43683;BME280;29285;52.128;21.060;2022-09-29T22:40:24;99732.56;;;8.91;67.08
43683;BME280;29285;52.128;21.060;2022-09-29T22:45:27;99739.94;;;8.90;67.14
43683;BME280;29285;52.128;21.060;2022-09-29T22:50:29;99746.02;;;8.89;67.20
43683;BME280;29285;52.128;21.060;2022-09-29T22:55:33;99751.66;;;8.86;67.24
43683;BME280;29285;52.128;21.060;2022-09-29T23:00:35;99747.44;;;8.82;67.28
43683;BME280;29285;52.128;21.060;2022-09-29T23:05:37;99757.86;;;8.79;67.30
43683;BME280;29285;52.128;21.060;2022-09-29T23:10:43;99758.34;;;8.77;67.32
43683;BME280;29285;52.128;21.060;2022-09-29T23:15:46;99761.38;;;8.75;67.37
43683;BME280;29285;52.128;21.060;2022-09-29T23:20:49;99770.53;;;8.72;67.43
43683;BME280;29285;52.128;21.060;2022-09-29T23:25:50;99765.43;;;8.66;67.42
43683;BME280;29285;52.128;21.060;2022-09-29T23:30:51;99775.40;;;8.65;67.44
43683;BME280;29285;52.128;21.060;2022-09-29T23:35:52;99768.98;;;8.62;67.45
43683;BME280;29285;52.128;21.060;2022-09-29T23:40:54;99757.76;;;8.59;67.50
43683;BME280;29285;52.128;21.060;2022-09-29T23:45:55;99752.98;;;8.60;67.58
43683;BME280;29285;52.128;21.060;2022-09-29T23:50:57;99757.26;;;8.63;67.67
43683;BME280;29285;52.128;21.060;2022-09-29T23:55:59;99763.31;;;8.64;67.76
